Warning: Javascript must be enabled to use all the features on this page!


Page Loading - Please Wait...

Click to hideNews Bulletins

Peak Streamflow for the Nation

USGS 01525981 TUSCARORA CREEK ABOVE SOUTH ADDISON NY

Steuben County, New York
Hydrologic Unit Code 02050104
Latitude  42°04'20", Longitude  77°17'56" NAD83
Drainage area 102  square miles
Gage datum 1,078.45 feet above NAVD88
Output formats
Table
Graph
Tab-separated file
peakfq (watstore) format
Reselect output format
Water
Year
Date Gage
Height
(feet)
Stream-
flow
(cfs)
1972 1972-06-23   17,0002,7,9
1989 1989-06-20 9.28 7,800
1990 1990-04-11 7.92 5,250
1992 1992-08-28 8.36 6,000
1993 1993-03-31 9.27 7,780
1994 1994-03-24 8.74 6,710
1995 1995-01-20 10.06 9,540
1996 1996-01-19 13.491 8,7002
1997 1996-11-08 10.85 11,500
1998 1998-01-08 9.37 7,990
1999 1999-03-04 6.68 3,430
2000 2000-06-13 8.08 5,150
2001 2001-04-09 7.78 4,840
2002 2002-06-15 6.16 2,500
2003 2003-07-22 12.62 13,200
2004 2004-09-09 13.54 17,800
2005 2005-04-02 8.28 5,780
2006 2005-11-29 8.84 6,540
2007 2007-03-15 8.69 6,540
2008 2008-02-06 8.97 7,010
2009 2009-03-09 5.33 2,190
2010 2010-01-25 8.82 6,890
2011 2010-12-01 9.15 7,420
2012 2011-10-20 6.65 3,850
2013 2013-01-31 7.24 4,590
2014 2014-05-16 11.09 11,300
2015 2015-06-28 5.81 2,910
2016 2016-02-24 5.80 2,780
2017 2017-01-12 7.53 4,870
2018 2018-09-21 8.07 5,630
2019 2019-04-19 7.242 4,480
2020 2019-10-31 8.02 5,570
?
  Peak Gage-Height Qualification Codes.
?
  Peak Streamflow Qualification Codes.